createdAt,value
2015-11-11T20:45:30.253Z,99507
2015-11-11T20:45:43.300Z,99510
2015-11-11T20:45:55.331Z,99507
2015-11-11T20:46:07.472Z,99505
2015-11-11T20:46:19.753Z,99507
2015-11-11T20:46:32.005Z,99499
2015-11-11T20:46:45.208Z,99496
2015-11-11T20:46:57.427Z,99510
2015-11-11T20:47:09.802Z,99499
2015-11-11T20:47:21.974Z,99496
2015-11-11T20:47:34.382Z,99507
2015-11-11T20:47:46.945Z,99502
2015-11-11T20:47:58.976Z,99499
2015-11-11T20:48:11.117Z,99499
2015-11-11T20:48:26.212Z,99499
2015-11-11T20:48:39.119Z,99513
2015-11-11T20:48:52.212Z,99505
2015-11-11T20:49:04.400Z,99507
2015-11-11T20:49:16.697Z,99510
2015-11-11T21:09:58.096Z,99518
2015-11-11T21:39:57.394Z,99541
2015-11-11T21:40:10.677Z,99527
2015-11-11T21:40:23.177Z,99516
2015-11-11T21:40:35.662Z,99525
2015-11-11T21:40:47.802Z,99533
2015-11-11T21:40:59.912Z,99522
2015-11-11T21:41:12.430Z,99522
2015-11-11T21:41:24.977Z,99527
2015-11-11T21:41:37.165Z,99536
2015-11-11T21:41:49.243Z,99522
2015-11-11T21:42:06.183Z,99536
2015-11-11T21:42:19.183Z,99528
2015-11-11T21:42:31.105Z,99528
2015-11-11T21:42:43.387Z,99525
2015-11-11T21:42:55.808Z,99528
2015-11-11T21:43:08.265Z,99541
2015-11-11T21:43:20.561Z,99536
2015-11-11T21:43:32.577Z,99544
2015-11-11T21:43:45.061Z,99536
2015-11-11T21:44:01.233Z,99533
2015-11-11T21:44:14.095Z,99530
2015-11-11T21:44:26.392Z,99533
2015-11-11T21:44:38.407Z,99528
2015-11-11T21:44:54.517Z,99533
2015-11-11T21:45:06.941Z,99541
2015-11-11T21:45:20.035Z,99527
2015-11-11T21:45:31.895Z,99539
2015-11-11T21:45:44.410Z,99533
2015-11-11T21:45:56.363Z,99539
2015-11-11T21:46:08.287Z,99525
2015-11-11T21:46:20.365Z,99536
2015-11-11T21:46:32.365Z,99539
2015-11-11T21:46:47.365Z,99539
2015-11-11T21:46:59.334Z,99536
2015-11-11T21:47:11.260Z,99533
2015-11-11T21:47:23.229Z,99528
2015-11-11T21:47:35.151Z,99533
2015-11-11T21:47:47.104Z,99539
2015-11-11T21:47:59.369Z,99536
2015-11-11T21:48:11.418Z,99528
2015-11-11T21:48:23.449Z,99528
2015-11-11T21:48:35.356Z,99536
2015-11-11T21:48:47.574Z,99536
2015-11-11T21:48:59.574Z,99533
2015-11-11T21:49:11.499Z,99525
2015-11-11T21:49:23.734Z,99544
2015-11-11T21:49:35.734Z,99539
2015-11-11T21:49:48.156Z,99533
2015-11-11T21:49:59.999Z,99539
2015-11-11T21:50:12.002Z,99525
2015-11-11T21:50:24.299Z,99528
2015-11-11T21:50:36.237Z,99533
2015-11-11T21:50:48.674Z,99530
2015-11-11T21:51:01.002Z,99525
2015-11-11T21:51:12.974Z,99533
2015-11-11T21:51:25.396Z,99528
2015-11-11T21:51:37.349Z,99530
2015-11-11T21:51:49.302Z,99533
2015-11-11T21:52:01.208Z,99522
2015-11-11T21:52:13.054Z,99530
2015-11-11T21:52:25.414Z,99530
2015-11-11T21:52:37.398Z,99539
2015-11-11T21:52:49.273Z,99536
2015-11-11T21:53:01.414Z,99525
2015-11-11T21:53:13.292Z,99525
2015-11-11T21:53:25.667Z,99542
2015-11-11T21:53:38.135Z,99533
2015-11-11T21:53:50.057Z,99533
2015-11-11T21:54:05.010Z,99536
2015-11-11T21:54:17.059Z,99530
2015-11-11T21:54:36.231Z,99533
2015-11-11T21:54:48.669Z,99530
2015-11-11T21:55:00.684Z,99530
2015-11-11T21:55:12.687Z,99533
2015-11-11T21:55:28.781Z,99533
2015-11-11T21:55:40.734Z,99525
2015-11-11T21:55:52.750Z,99519
2015-11-11T21:56:04.828Z,99542
2015-11-11T21:56:16.767Z,99533
2015-11-11T21:56:29.174Z,99542
2015-11-11T21:56:41.252Z,99525
2015-11-11T21:56:53.283Z,99533
2015-11-11T21:57:05.236Z,99528
2015-11-11T21:57:17.271Z,99539
2015-11-11T21:57:29.662Z,99536
2015-11-11T21:57:41.662Z,99525
2015-11-11T21:57:53.662Z,99533
2015-11-11T21:58:05.834Z,99536
2015-11-11T21:58:17.789Z,99528
2015-11-11T21:58:30.226Z,99531
2015-11-11T21:58:42.195Z,99536
2015-11-11T21:58:55.289Z,99531
2015-11-11T21:59:07.289Z,99531
2015-11-11T21:59:19.573Z,99531
2015-11-11T21:59:32.495Z,99542
2015-11-11T21:59:45.229Z,99533
2015-11-11T21:59:58.339Z,99536
2015-11-11T22:00:10.357Z,99525
2015-11-11T22:00:22.326Z,99533
2015-11-11T22:00:34.232Z,99525
2015-11-11T22:00:46.139Z,99533
2015-11-11T22:00:58.576Z,99530
2015-11-11T22:01:12.047Z,99533
2015-11-11T22:01:25.094Z,99547
2015-11-11T22:01:37.031Z,99533
2015-11-11T22:01:49.359Z,99539
2015-11-11T22:02:01.234Z,99528
2015-11-11T22:02:13.597Z,99539
2015-11-11T22:02:29.675Z,99539
2015-11-11T22:02:41.659Z,99530
2015-11-11T22:02:53.628Z,99525
2015-11-11T22:03:05.519Z,99536
2015-11-11T22:03:17.334Z,99525
2015-11-11T22:03:29.131Z,99528
2015-11-11T22:03:41.084Z,99536
2015-11-11T22:03:53.022Z,99528
2015-11-11T22:04:05.319Z,99517
2015-11-11T22:04:17.556Z,99525
2015-11-11T22:04:29.431Z,99528
2015-11-11T22:04:41.306Z,99528
2015-11-11T22:04:53.243Z,99519
2015-11-11T22:05:05.118Z,99519
2015-11-11T22:05:17.636Z,99528
2015-11-11T22:05:29.464Z,99522
2015-11-11T22:05:41.355Z,99519
2015-11-11T22:05:53.855Z,99522
2015-11-11T22:06:05.792Z,99531
2015-11-11T22:06:21.529Z,99522
2015-11-11T22:06:34.919Z,99525
2015-11-11T22:06:51.935Z,99525
2015-11-11T22:07:03.904Z,99519
2015-11-11T22:07:15.861Z,99519
2015-11-11T22:07:28.392Z,99531
2015-11-11T22:07:40.361Z,99525
2015-11-11T22:07:52.376Z,99533
2015-11-11T22:08:07.236Z,99522
2015-11-11T22:08:19.144Z,99525
2015-11-11T22:08:35.285Z,99528
2015-11-11T22:08:47.316Z,99514
2015-11-11T22:08:59.910Z,99522
2015-11-11T22:09:11.866Z,99525
2015-11-11T22:09:24.381Z,99519
2015-11-11T22:09:36.335Z,99533
2015-11-11T22:09:48.756Z,99519
2015-11-11T22:10:00.788Z,99519
2015-11-11T22:10:16.915Z,99517
2015-11-11T22:10:28.837Z,99531
2015-11-11T22:10:40.712Z,99519
2015-11-11T22:10:53.055Z,99519
2015-11-11T22:11:05.055Z,99519
2015-11-11T22:11:17.090Z,99525
2015-11-11T22:11:29.011Z,99525
2015-11-11T22:11:40.902Z,99517
2015-11-11T22:11:53.527Z,99522
2015-11-11T22:12:05.465Z,99517
2015-11-11T22:12:17.843Z,99528
2015-11-11T22:12:30.077Z,99525
2015-11-11T22:12:42.452Z,99514
2015-11-11T22:12:54.405Z,99525
2015-11-11T22:13:06.827Z,99514
2015-11-11T22:13:19.141Z,99517
2015-11-11T22:13:32.063Z,99519
2015-11-11T22:13:43.845Z,99525
2015-11-11T22:13:58.688Z,99514
2015-11-11T22:14:11.141Z,99519
2015-11-11T22:14:23.082Z,99519
2015-11-11T22:14:35.019Z,99511
2015-11-11T22:14:48.223Z,99522
2015-11-11T22:15:00.973Z,99517
2015-11-11T22:15:12.960Z,99514
2015-11-11T22:15:24.897Z,99514
2015-11-11T22:15:37.226Z,99525
2015-11-11T22:15:49.132Z,99517
2015-11-11T22:16:00.976Z,99517
2015-11-11T22:16:13.291Z,99517
2015-11-11T22:16:26.072Z,99528
2015-11-11T22:16:42.650Z,99531
2015-11-11T22:16:54.525Z,99522
2015-11-11T22:17:07.041Z,99522
2015-11-11T22:17:18.918Z,99519
2015-11-11T22:17:30.824Z,99525
2015-11-11T22:17:42.684Z,99525
2015-11-11T22:17:54.559Z,99514
2015-11-11T22:18:06.559Z,99536
2015-11-11T22:18:18.437Z,99522
2015-11-11T22:18:30.249Z,99525
2015-11-11T22:18:42.702Z,99525
2015-11-11T22:18:54.609Z,99519
2015-11-11T22:19:06.734Z,99522
2015-11-11T22:19:18.690Z,99528
2015-11-11T22:19:31.096Z,99519
2015-11-11T22:19:43.299Z,99519
2015-11-11T22:19:55.674Z,99519
2015-11-11T22:20:07.987Z,99525
2015-11-11T22:20:19.989Z,99522
2015-11-11T22:20:32.395Z,99519
2015-11-11T22:20:44.395Z,99539
2015-11-11T22:20:56.317Z,99519
2015-11-11T22:21:08.739Z,99522
2015-11-11T22:21:20.757Z,99531
2015-11-11T22:21:33.554Z,99528
2015-11-11T22:21:45.554Z,99525
2015-11-11T22:21:57.460Z,99533
2015-11-11T22:22:10.179Z,99533
2015-11-11T22:22:22.134Z,99531
2015-11-11T22:22:34.478Z,99533
2015-11-11T22:22:47.494Z,99539
2015-11-11T22:22:59.837Z,99522
2015-11-11T22:23:13.025Z,99525
2015-11-11T22:23:25.435Z,99531
2015-11-11T22:23:38.404Z,99542
2015-11-11T22:23:50.263Z,99533
2015-11-11T22:24:02.513Z,99531
2015-11-11T22:24:14.828Z,99528
2015-11-11T22:24:26.765Z,99528
2015-11-11T22:24:38.593Z,99536
2015-11-11T22:24:50.484Z,99531
2015-11-11T22:25:02.406Z,99531
2015-11-11T22:25:14.971Z,99531
2015-11-11T22:25:26.971Z,99536
2015-11-11T22:25:39.315Z,99528
2015-11-11T22:25:51.362Z,99519
2015-11-11T22:26:03.268Z,99525
2015-11-11T22:26:15.192Z,99522
2015-11-11T22:26:27.505Z,99519
2015-11-11T22:26:39.426Z,99525
2015-11-11T22:26:51.676Z,99522
2015-11-11T22:27:03.583Z,99517
2015-11-11T22:27:16.258Z,99519
2015-11-11T22:27:28.086Z,99528
2015-11-11T22:27:40.008Z,99519
2015-11-11T22:27:51.898Z,99519
2015-11-11T22:28:03.851Z,99531
2015-11-11T22:28:15.776Z,99533
2015-11-11T22:28:27.698Z,99517
2015-11-11T22:28:39.557Z,99517
2015-11-11T22:28:51.479Z,99514
2015-11-11T22:29:03.417Z,99525
2015-11-11T22:29:15.606Z,99519
2015-11-11T22:29:27.544Z,99519
2015-11-11T22:29:39.528Z,99525
2015-11-11T22:29:51.888Z,99519
2015-11-11T22:30:03.825Z,99525
2015-11-11T22:30:15.751Z,99525
2015-11-11T22:30:28.407Z,99511
2015-11-11T22:30:40.329Z,99525
2015-11-11T22:30:52.220Z,99511
2015-11-11T22:31:04.110Z,99514
2015-11-11T22:31:16.003Z,99517
2015-11-11T22:31:27.878Z,99519
2015-11-11T22:31:40.409Z,99519
2015-11-11T22:31:52.300Z,99511
2015-11-11T22:32:04.253Z,99517
2015-11-11T22:32:16.739Z,99517
2015-11-11T22:32:28.583Z,99517
2015-11-11T22:32:40.661Z,99531
2015-11-11T22:32:53.177Z,99525
2015-11-11T22:33:09.333Z,99517
2015-11-11T22:33:21.227Z,99517
2015-11-11T22:33:33.086Z,99517
2015-11-11T22:33:44.992Z,99517
2015-11-11T22:33:57.602Z,99517
2015-11-11T22:34:09.555Z,99514
2015-11-11T22:34:21.527Z,99520
2015-11-11T22:34:33.464Z,99522
2015-11-11T22:34:45.339Z,99520
2015-11-11T22:34:57.277Z,99514
2015-11-11T22:35:09.714Z,99517
2015-11-11T22:35:22.045Z,99508
2015-11-11T22:35:33.998Z,99508
2015-11-11T22:35:45.905Z,99514
2015-11-11T22:35:59.061Z,99509
2015-11-11T22:36:11.014Z,99517
2015-11-11T22:36:23.001Z,99506
2015-11-11T22:36:36.486Z,99522
2015-11-11T22:36:48.376Z,99520
2015-11-11T22:37:00.314Z,99520
2015-11-11T22:37:12.361Z,99522
2015-11-11T22:37:24.331Z,99517
2015-11-11T22:37:36.285Z,99514
2015-11-11T22:37:52.081Z,99511
2015-11-11T22:38:04.535Z,99514
2015-11-11T22:38:16.444Z,99517
2015-11-11T22:38:28.725Z,99522
2015-11-11T22:38:40.913Z,99525
2015-11-11T22:38:53.178Z,99514
2015-11-11T22:39:05.022Z,99520
2015-11-11T22:39:16.853Z,99522
2015-11-11T22:39:32.947Z,99511
2015-11-11T22:39:44.869Z,99514
2015-11-11T22:39:56.744Z,99511
2015-11-11T22:40:09.166Z,99506
2015-11-11T22:40:20.996Z,99514
2015-11-11T22:40:32.839Z,99517
2015-11-11T22:40:44.808Z,99517
2015-11-11T22:40:57.183Z,99520
2015-11-11T22:41:09.105Z,99511
2015-11-11T22:41:21.046Z,99514
2015-11-11T22:41:33.374Z,99514
2015-11-11T22:41:45.264Z,99514
2015-11-11T22:41:57.233Z,99517
2015-11-11T22:42:09.608Z,99522
2015-11-11T22:42:21.641Z,99520
2015-11-11T22:42:33.688Z,99511
2015-11-11T22:42:50.001Z,99523
2015-11-11T22:43:01.891Z,99509
2015-11-11T22:43:13.782Z,99517
2015-11-11T22:43:26.192Z,99520
2015-11-11T22:43:38.036Z,99517
2015-11-11T22:43:49.973Z,99522
2015-11-11T22:44:01.927Z,99520
2015-11-11T22:44:13.848Z,99517
2015-11-11T22:44:25.757Z,99511
2015-11-11T22:44:38.038Z,99514
2015-11-11T22:44:49.913Z,99528
2015-11-11T22:45:05.944Z,99531
2015-11-11T22:45:18.400Z,99511
2015-11-11T22:45:30.322Z,99520
2015-11-11T22:45:42.322Z,99534
2015-11-11T22:45:54.244Z,99522
2015-11-11T22:46:06.119Z,99522
2015-11-11T22:46:19.262Z,99522
2015-11-11T22:46:32.059Z,99517
2015-11-11T22:46:44.824Z,99517
2015-11-11T22:46:56.871Z,99517
2015-11-11T22:47:09.934Z,99517
2015-11-11T22:47:21.906Z,99514
2015-11-11T22:47:34.922Z,99525
2015-11-11T22:47:51.109Z,99520
2015-11-11T22:48:03.156Z,99534
2015-11-11T22:48:15.234Z,99509
2015-11-11T22:48:27.158Z,99517
2015-11-11T22:48:39.940Z,99522
2015-11-11T22:48:52.986Z,99525
2015-11-11T22:49:12.533Z,99528
2015-11-11T22:49:24.473Z,99539
2015-11-11T22:49:36.442Z,99534
2015-11-11T22:49:49.301Z,99534
2015-11-11T22:50:01.301Z,99534
2015-11-11T22:50:13.270Z,99528
2015-11-11T22:50:25.679Z,99528
2015-11-11T22:50:38.382Z,99528
2015-11-11T22:50:50.288Z,99531
2015-11-11T22:51:02.741Z,99531
2015-11-11T22:51:15.288Z,99531
2015-11-11T22:51:27.198Z,99534
2015-11-11T22:51:39.494Z,99545
2015-11-11T22:51:51.369Z,99539
2015-11-11T22:52:07.948Z,99536
2015-11-11T22:52:20.716Z,99539
2015-11-11T22:52:33.091Z,99536
2015-11-11T22:52:48.544Z,99536
2015-11-11T22:53:01.138Z,99531
2015-11-11T22:53:14.622Z,99545
2015-11-11T22:53:27.140Z,99536
2015-11-11T22:53:39.171Z,99545
2015-11-11T22:53:51.078Z,99542
2015-11-11T22:54:04.984Z,99534
2015-11-11T22:54:17.421Z,99534
2015-11-11T22:54:29.799Z,99539
2015-11-11T22:54:41.690Z,99536
2015-11-11T22:54:53.612Z,99548
2015-11-11T22:55:05.471Z,99536
2015-11-11T22:55:17.674Z,99542
2015-11-11T22:55:30.271Z,99553
2015-11-11T22:55:42.209Z,99531
2015-11-11T22:55:55.005Z,99539
2015-11-11T22:56:06.927Z,99542
2015-11-11T22:56:20.193Z,99542
2015-11-11T22:56:32.462Z,99542
2015-11-11T22:56:44.305Z,99537
2015-11-11T22:56:56.196Z,99534
2015-11-11T22:57:08.852Z,99553
2015-11-11T22:57:21.633Z,99534
2015-11-11T22:57:33.902Z,99542
2015-11-11T22:57:45.886Z,99539
2015-11-11T22:57:57.902Z,99548
2015-11-11T22:58:09.949Z,99548
2015-11-11T22:58:22.277Z,99534
2015-11-11T22:58:35.154Z,99537
2015-11-11T22:58:47.904Z,99545
2015-11-11T22:58:59.795Z,99534
2015-11-11T22:59:12.170Z,99534
2015-11-11T22:59:24.720Z,99531
2015-11-11T22:59:37.157Z,99542
2015-11-11T22:59:49.095Z,99548
2015-11-11T23:00:01.095Z,99539
2015-11-11T23:00:13.485Z,99539
2015-11-11T23:00:25.457Z,99534
2015-11-11T23:00:37.473Z,99534
2015-11-11T23:00:50.191Z,99534
2015-11-11T23:01:02.129Z,99537
2015-11-11T23:01:14.801Z,99534
2015-11-11T23:01:26.771Z,99534
2015-11-11T23:01:40.256Z,99542
2015-11-11T23:01:52.662Z,99539
2015-11-11T23:02:08.021Z,99531
2015-11-11T23:02:19.943Z,99542
2015-11-11T23:02:31.837Z,99545
2015-11-11T23:02:43.743Z,99542
2015-11-11T23:02:56.571Z,99534
2015-11-11T23:03:09.024Z,99539
2015-11-11T23:03:20.993Z,99539
2015-11-11T23:03:32.901Z,99539
2015-11-11T23:03:49.495Z,99545
2015-11-11T23:04:01.808Z,99542
2015-11-11T23:04:14.261Z,99545
2015-11-11T23:04:26.217Z,99536
2015-11-11T23:04:38.639Z,99545
2015-11-11T23:04:50.545Z,99542
2015-11-11T23:05:02.451Z,99550
2015-11-11T23:05:14.358Z,99534
2015-11-11T23:05:26.861Z,99531
2015-11-11T23:05:39.314Z,99539
2015-11-11T23:05:51.282Z,99536
2015-11-11T23:06:04.048Z,99539
2015-11-11T23:06:15.939Z,99536
2015-11-11T23:06:27.864Z,99528
2015-11-11T23:06:41.145Z,99542
2015-11-11T23:06:53.082Z,99539
2015-11-11T23:07:05.442Z,99536
2015-11-11T23:07:17.551Z,99536
2015-11-11T23:07:32.585Z,99556
2015-11-11T23:07:44.617Z,99539
2015-11-11T23:07:56.476Z,99539
2015-11-11T23:08:08.695Z,99542
2015-11-11T23:08:20.992Z,99545
2015-11-11T23:08:33.228Z,99548
2015-11-11T23:08:45.525Z,99539
2015-11-11T23:08:57.384Z,99536
2015-11-11T23:09:09.806Z,99539
2015-11-11T23:09:22.009Z,99553
2015-11-11T23:09:34.325Z,99542
2015-11-11T23:09:46.247Z,99553
2015-11-11T23:09:58.168Z,99545
2015-11-11T23:10:10.075Z,99542
2015-11-11T23:10:21.997Z,99539
2015-11-11T23:10:34.827Z,99536
2015-11-11T23:10:47.045Z,99550
2015-11-11T23:10:58.952Z,99548
2015-11-11T23:11:10.827Z,99536
2015-11-11T23:11:22.670Z,99547
2015-11-11T23:11:38.095Z,99534
2015-11-11T23:11:50.923Z,99539
2015-11-11T23:12:06.986Z,99545
2015-11-11T23:12:19.486Z,99545
2015-11-11T23:12:31.441Z,99534
2015-11-11T23:12:43.394Z,99545
2015-11-11T23:12:56.425Z,99534
2015-11-11T23:13:08.425Z,99534
2015-11-11T23:13:20.472Z,99539
2015-11-11T23:13:32.460Z,99537
2015-11-11T23:13:44.303Z,99537
2015-11-11T23:13:56.569Z,99534
2015-11-11T23:14:08.928Z,99539
2015-11-11T23:14:25.069Z,99534
2015-11-11T23:14:37.010Z,99542
2015-11-11T23:14:49.572Z,99539
2015-11-11T23:15:01.478Z,99536
2015-11-11T23:15:14.135Z,99536
2015-11-11T23:15:30.263Z,99534
2015-11-11T23:15:42.919Z,99531
2015-11-11T23:15:55.403Z,99528
2015-11-11T23:16:08.716Z,99531
2015-11-11T23:16:21.466Z,99536
2015-11-11T23:16:33.750Z,99539
2015-11-11T23:16:45.687Z,99539
2015-11-11T23:16:58.078Z,99548
2015-11-11T23:17:11.047Z,99531
2015-11-11T23:17:22.891Z,99542
2015-11-11T23:17:36.753Z,99539
2015-11-11T23:17:53.315Z,99534
2015-11-11T23:18:05.222Z,99542
2015-11-11T23:18:17.159Z,99523
2015-11-11T23:18:29.519Z,99534
2015-11-11T23:18:41.692Z,99528
2015-11-11T23:18:53.552Z,99537
2015-11-11T23:19:05.974Z,99525
2015-11-11T23:19:17.974Z,99534
2015-11-11T23:19:29.911Z,99534
2015-11-11T23:19:41.866Z,99545
2015-11-11T23:19:54.069Z,99542
2015-11-11T23:20:06.726Z,99536
2015-11-11T23:20:18.944Z,99534
2015-11-11T23:20:30.901Z,99537
2015-11-11T23:20:42.869Z,99534
2015-11-11T23:20:57.854Z,99537
2015-11-11T23:21:09.713Z,99539
2015-11-11T23:21:21.541Z,99534
2015-11-11T23:21:33.794Z,99542
2015-11-11T23:21:45.747Z,99531
2015-11-11T23:21:57.685Z,99536
2015-11-11T23:22:10.200Z,99545
2015-11-11T23:22:22.575Z,99531
2015-11-11T23:22:34.407Z,99531
2015-11-11T23:22:49.735Z,99525
2015-11-11T23:23:02.063Z,99534
2015-11-11T23:23:14.047Z,99545
2015-11-11T23:23:26.032Z,99537
2015-11-11T23:23:38.534Z,99537
2015-11-11T23:23:51.002Z,99542
2015-11-11T23:24:02.909Z,99539
2015-11-11T23:24:14.862Z,99542
2015-11-11T23:24:26.846Z,99539
2015-11-11T23:24:38.834Z,99534
2015-11-11T23:24:50.803Z,99534
2015-11-11T23:25:02.725Z,99537
2015-11-11T23:25:15.178Z,99534
2015-11-11T23:25:27.600Z,99539
2015-11-11T23:25:39.493Z,99542
2015-11-11T23:25:52.493Z,99534
2015-11-11T23:26:04.430Z,99534
2015-11-11T23:26:16.399Z,99539
2015-11-11T23:26:28.383Z,99542
2015-11-11T23:26:40.277Z,99539
2015-11-11T23:26:52.496Z,99537
2015-11-11T23:27:04.293Z,99542
2015-11-11T23:27:17.371Z,99537
2015-11-11T23:27:29.261Z,99539
2015-11-11T23:27:41.171Z,99539
2015-11-11T23:27:53.077Z,99545
2015-11-11T23:28:04.905Z,99537
2015-11-11T23:28:17.577Z,99537
2015-11-11T23:28:29.546Z,99537
2015-11-11T23:28:42.094Z,99542
2015-11-11T23:28:54.063Z,99542
2015-11-11T23:29:06.032Z,99528
2015-11-11T23:29:17.876Z,99537
2015-11-11T23:29:29.782Z,99534
2015-11-11T23:29:41.832Z,99528
2015-11-11T23:29:54.316Z,99531
2015-11-11T23:30:06.363Z,99537
2015-11-11T23:30:18.832Z,99528
2015-11-11T23:30:31.207Z,99539
2015-11-11T23:30:43.240Z,99534
2015-11-11T23:30:55.506Z,99537
2015-11-11T23:31:07.459Z,99528
2015-11-11T23:31:20.037Z,99531
2015-11-11T23:31:32.131Z,99534
2015-11-11T23:31:44.102Z,99526
2015-11-11T23:31:55.899Z,99531
2015-11-11T23:32:07.806Z,99523
2015-11-11T23:32:20.243Z,99534
2015-11-11T23:32:32.649Z,99534
2015-11-11T23:32:45.090Z,99531
2015-11-11T23:32:56.902Z,99534
2015-11-11T23:33:09.340Z,99528
2015-11-11T23:33:21.512Z,99531
2015-11-11T23:33:33.246Z,99526
2015-11-11T23:33:45.123Z,99526
2015-11-11T23:33:57.842Z,99542
2015-11-11T23:34:10.217Z,99526
2015-11-11T23:34:22.123Z,99534
2015-11-11T23:34:34.623Z,99537
2015-11-11T23:34:46.580Z,99537
2015-11-11T23:34:58.440Z,99545
2015-11-11T23:35:10.393Z,99545
2015-11-11T23:35:22.674Z,99537
2015-11-11T23:35:35.127Z,99537
2015-11-11T23:35:46.988Z,99531
2015-11-11T23:35:58.848Z,99539
2015-11-11T23:36:10.738Z,99526
2015-11-11T23:36:22.613Z,99531
2015-11-11T23:36:35.457Z,99531
2015-11-11T23:36:48.491Z,99539
2015-11-11T23:37:00.898Z,99537
2015-11-11T23:37:13.195Z,99537
2015-11-11T23:37:25.523Z,99531
2015-11-11T23:37:37.463Z,99526
2015-11-11T23:37:49.416Z,99531
2015-11-11T23:38:02.104Z,99534
2015-11-11T23:38:14.073Z,99526
2015-11-11T23:38:26.432Z,99528
2015-11-11T23:38:38.309Z,99531
2015-11-11T23:38:50.168Z,99540
2015-11-11T23:39:02.371Z,99534
2015-11-11T23:39:14.793Z,99526
2015-11-11T23:39:27.121Z,99523
2015-11-11T23:39:38.984Z,99534
2015-11-11T23:39:52.312Z,99526
2015-11-11T23:40:04.249Z,99528
2015-11-11T23:40:16.109Z,99531
2015-11-11T23:40:29.374Z,99528
2015-11-11T23:40:41.283Z,99523
2015-11-11T23:40:53.267Z,99526
2015-11-11T23:41:05.095Z,99528
2015-11-11T23:41:16.986Z,99528
2015-11-11T23:41:29.580Z,99523
2015-11-11T23:41:41.489Z,99526
2015-11-11T23:41:53.458Z,99531
2015-11-11T23:42:06.036Z,99523
2015-11-11T23:42:18.348Z,99528
2015-11-11T23:42:30.598Z,99534
2015-11-11T23:42:42.789Z,99526
2015-11-11T23:42:55.679Z,99515
2015-11-11T23:43:07.554Z,99526
2015-11-11T23:43:19.539Z,99531
2015-11-11T23:43:32.257Z,99534
2015-11-11T23:43:44.104Z,99537
2015-11-11T23:43:55.979Z,99526
2015-11-11T23:44:08.307Z,99523
2015-11-11T23:44:20.276Z,99531
2015-11-11T23:44:33.089Z,99526
2015-11-11T23:44:45.107Z,99537
2015-11-11T23:44:57.998Z,99528
2015-11-11T23:45:10.170Z,99534
2015-11-11T23:45:22.185Z,99534
2015-11-11T23:45:35.888Z,99540
2015-11-11T23:45:49.203Z,99526
2015-11-11T23:46:01.156Z,99526
2015-11-11T23:46:13.562Z,99529
2015-11-11T23:46:25.453Z,99531
2015-11-11T23:46:40.753Z,99529
2015-11-11T23:46:53.159Z,99534
2015-11-11T23:47:05.081Z,99540
2015-11-11T23:47:17.003Z,99526
2015-11-11T23:47:28.862Z,99529
2015-11-11T23:47:40.724Z,99526
2015-11-11T23:47:52.567Z,99531
2015-11-11T23:48:04.786Z,99537
2015-11-11T23:48:16.989Z,99526
2015-11-11T23:48:28.864Z,99534
2015-11-11T23:48:40.742Z,99531
2015-11-11T23:48:52.680Z,99529
2015-11-11T23:49:04.992Z,99531
2015-11-11T23:49:17.617Z,99529
2015-11-11T23:49:30.914Z,99526
2015-11-11T23:49:43.385Z,99534
2015-11-11T23:49:55.963Z,99531
2015-11-11T23:50:07.916Z,99526
2015-11-11T23:50:20.166Z,99534
2015-11-11T23:50:32.166Z,99531
2015-11-11T23:50:44.639Z,99534
2015-11-11T23:50:56.561Z,99520
2015-11-11T23:51:09.717Z,99523
2015-11-11T23:51:21.717Z,99526
2015-11-11T23:51:34.358Z,99523
2015-11-11T23:51:46.563Z,99528
2015-11-11T23:51:58.485Z,99523
2015-11-11T23:52:11.422Z,99531
2015-11-11T23:52:23.906Z,99515
2015-11-11T23:52:35.875Z,99529
